sensor_id;sensor_type;location;lat;lon;timestamp;P1;durP1;ratioP1;P2;durP2;ratioP2
71639;SDS011;60912;48.968;10.124;2024-01-30T00:00:37;16.07;;;10.13;;
71639;SDS011;60912;48.968;10.124;2024-01-30T00:03:02;15.93;;;9.03;;
71639;SDS011;60912;48.968;10.124;2024-01-30T00:05:28;16.80;;;9.25;;
71639;SDS011;60912;48.968;10.124;2024-01-30T00:07:53;14.67;;;9.07;;
71639;SDS011;60912;48.968;10.124;2024-01-30T00:10:18;16.70;;;9.80;;
71639;SDS011;60912;48.968;10.124;2024-01-30T00:12:47;15.45;;;9.07;;
71639;SDS011;60912;48.968;10.124;2024-01-30T00:15:12;14.90;;;8.80;;
71639;SDS011;60912;48.968;10.124;2024-01-30T00:17:38;16.77;;;9.90;;
71639;SDS011;60912;48.968;10.124;2024-01-30T00:20:03;16.70;;;9.67;;
71639;SDS011;60912;48.968;10.124;2024-01-30T00:22:34;17.77;;;10.05;;
71639;SDS011;60912;48.968;10.124;2024-01-30T00:24:59;18.73;;;9.90;;
71639;SDS011;60912;48.968;10.124;2024-01-30T00:27:25;18.30;;;9.73;;
71639;SDS011;60912;48.968;10.124;2024-01-30T00:29:51;16.95;;;9.52;;
71639;SDS011;60912;48.968;10.124;2024-01-30T00:32:16;18.00;;;10.43;;
71639;SDS011;60912;48.968;10.124;2024-01-30T00:34:44;17.10;;;9.73;;
71639;SDS011;60912;48.968;10.124;2024-01-30T00:37:10;17.33;;;9.88;;
71639;SDS011;60912;48.968;10.124;2024-01-30T00:39:35;17.27;;;9.50;;
71639;SDS011;60912;48.968;10.124;2024-01-30T00:42:01;14.63;;;9.33;;
71639;SDS011;60912;48.968;10.124;2024-01-30T00:44:26;16.67;;;9.17;;
71639;SDS011;60912;48.968;10.124;2024-01-30T00:46:52;15.73;;;9.53;;
71639;SDS011;60912;48.968;10.124;2024-01-30T00:49:17;15.93;;;9.50;;
71639;SDS011;60912;48.968;10.124;2024-01-30T00:51:42;17.23;;;9.43;;
71639;SDS011;60912;48.968;10.124;2024-01-30T00:54:07;16.40;;;8.60;;
71639;SDS011;60912;48.968;10.124;2024-01-30T00:56:33;17.23;;;9.40;;
71639;SDS011;60912;48.968;10.124;2024-01-30T00:58:59;18.05;;;10.27;;
71639;SDS011;60912;48.968;10.124;2024-01-30T01:01:24;15.67;;;9.33;;
71639;SDS011;60912;48.968;10.124;2024-01-30T01:03:49;15.93;;;8.83;;
71639;SDS011;60912;48.968;10.124;2024-01-30T01:06:15;14.93;;;8.70;;
71639;SDS011;60912;48.968;10.124;2024-01-30T01:08:40;13.77;;;8.10;;
71639;SDS011;60912;48.968;10.124;2024-01-30T01:11:05;16.17;;;8.47;;
71639;SDS011;60912;48.968;10.124;2024-01-30T01:13:31;15.40;;;8.30;;
71639;SDS011;60912;48.968;10.124;2024-01-30T01:15:56;14.30;;;8.00;;
71639;SDS011;60912;48.968;10.124;2024-01-30T01:18:21;21.57;;;8.20;;
71639;SDS011;60912;48.968;10.124;2024-01-30T01:20:47;16.37;;;8.70;;
71639;SDS011;60912;48.968;10.124;2024-01-30T01:23:12;15.80;;;7.83;;
71639;SDS011;60912;48.968;10.124;2024-01-30T01:25:37;14.23;;;8.23;;
71639;SDS011;60912;48.968;10.124;2024-01-30T01:28:03;12.50;;;7.63;;
71639;SDS011;60912;48.968;10.124;2024-01-30T01:30:28;13.90;;;7.50;;
71639;SDS011;60912;48.968;10.124;2024-01-30T01:32:54;12.97;;;7.80;;
71639;SDS011;60912;48.968;10.124;2024-01-30T01:35:25;12.80;;;7.15;;
71639;SDS011;60912;48.968;10.124;2024-01-30T01:37:51;15.47;;;7.60;;
71639;SDS011;60912;48.968;10.124;2024-01-30T01:40:23;12.18;;;7.32;;
71639;SDS011;60912;48.968;10.124;2024-01-30T01:42:49;17.27;;;7.32;;
71639;SDS011;60912;48.968;10.124;2024-01-30T01:45:16;12.63;;;7.25;;
71639;SDS011;60912;48.968;10.124;2024-01-30T01:47:41;13.00;;;6.87;;
71639;SDS011;60912;48.968;10.124;2024-01-30T01:50:07;15.50;;;7.70;;
71639;SDS011;60912;48.968;10.124;2024-01-30T01:52:32;13.63;;;7.43;;
71639;SDS011;60912;48.968;10.124;2024-01-30T01:54:58;13.45;;;7.05;;
71639;SDS011;60912;48.968;10.124;2024-01-30T01:57:24;12.67;;;7.33;;
71639;SDS011;60912;48.968;10.124;2024-01-30T01:59:49;12.70;;;7.53;;
71639;SDS011;60912;48.968;10.124;2024-01-30T02:02:15;14.32;;;7.35;;
71639;SDS011;60912;48.968;10.124;2024-01-30T02:04:44;12.83;;;6.60;;
71639;SDS011;60912;48.968;10.124;2024-01-30T02:07:10;13.25;;;6.97;;
71639;SDS011;60912;48.968;10.124;2024-01-30T02:09:36;14.68;;;7.85;;
71639;SDS011;60912;48.968;10.124;2024-01-30T02:12:01;15.00;;;7.70;;
71639;SDS011;60912;48.968;10.124;2024-01-30T02:14:26;12.07;;;7.03;;
71639;SDS011;60912;48.968;10.124;2024-01-30T02:16:52;12.40;;;7.33;;
71639;SDS011;60912;48.968;10.124;2024-01-30T02:19:17;13.63;;;7.30;;
71639;SDS011;60912;48.968;10.124;2024-01-30T02:21:43;14.68;;;7.50;;
71639;SDS011;60912;48.968;10.124;2024-01-30T02:24:09;15.00;;;7.23;;
71639;SDS011;60912;48.968;10.124;2024-01-30T02:26:34;13.32;;;7.70;;
71639;SDS011;60912;48.968;10.124;2024-01-30T02:29:00;14.90;;;7.40;;
71639;SDS011;60912;48.968;10.124;2024-01-30T02:31:25;12.90;;;7.97;;
71639;SDS011;60912;48.968;10.124;2024-01-30T02:33:51;12.13;;;7.13;;
71639;SDS011;60912;48.968;10.124;2024-01-30T02:36:16;12.57;;;7.67;;
71639;SDS011;60912;48.968;10.124;2024-01-30T02:38:42;14.63;;;8.00;;
71639;SDS011;60912;48.968;10.124;2024-01-30T02:41:07;14.60;;;7.47;;
71639;SDS011;60912;48.968;10.124;2024-01-30T02:43:32;14.70;;;7.70;;
71639;SDS011;60912;48.968;10.124;2024-01-30T02:45:57;14.47;;;8.00;;
71639;SDS011;60912;48.968;10.124;2024-01-30T02:48:24;13.63;;;7.88;;
71639;SDS011;60912;48.968;10.124;2024-01-30T02:50:50;13.97;;;7.70;;
71639;SDS011;60912;48.968;10.124;2024-01-30T02:53:18;14.18;;;8.07;;
71639;SDS011;60912;48.968;10.124;2024-01-30T02:55:43;15.57;;;7.63;;
71639;SDS011;60912;48.968;10.124;2024-01-30T02:58:09;14.80;;;7.63;;
71639;SDS011;60912;48.968;10.124;2024-01-30T03:00:34;15.10;;;8.00;;
71639;SDS011;60912;48.968;10.124;2024-01-30T03:03:00;14.90;;;7.50;;
71639;SDS011;60912;48.968;10.124;2024-01-30T03:05:25;12.30;;;6.40;;
71639;SDS011;60912;48.968;10.124;2024-01-30T03:07:50;12.50;;;7.47;;
71639;SDS011;60912;48.968;10.124;2024-01-30T03:10:16;12.33;;;7.07;;
71639;SDS011;60912;48.968;10.124;2024-01-30T03:12:41;12.10;;;6.88;;
71639;SDS011;60912;48.968;10.124;2024-01-30T03:15:07;12.00;;;6.47;;
71639;SDS011;60912;48.968;10.124;2024-01-30T03:17:32;13.07;;;6.73;;
71639;SDS011;60912;48.968;10.124;2024-01-30T03:19:58;13.23;;;7.43;;
71639;SDS011;60912;48.968;10.124;2024-01-30T03:22:23;12.45;;;7.13;;
71639;SDS011;60912;48.968;10.124;2024-01-30T03:24:48;13.67;;;7.37;;
71639;SDS011;60912;48.968;10.124;2024-01-30T03:27:14;17.73;;;7.53;;
71639;SDS011;60912;48.968;10.124;2024-01-30T03:29:39;12.00;;;6.97;;
71639;SDS011;60912;48.968;10.124;2024-01-30T03:32:04;13.67;;;7.70;;
71639;SDS011;60912;48.968;10.124;2024-01-30T03:34:30;13.85;;;7.00;;
71639;SDS011;60912;48.968;10.124;2024-01-30T03:36:55;11.63;;;7.27;;
71639;SDS011;60912;48.968;10.124;2024-01-30T03:39:21;14.87;;;7.50;;
71639;SDS011;60912;48.968;10.124;2024-01-30T03:41:46;15.57;;;7.80;;
71639;SDS011;60912;48.968;10.124;2024-01-30T03:44:11;14.23;;;8.17;;
71639;SDS011;60912;48.968;10.124;2024-01-30T03:46:37;17.50;;;8.07;;
71639;SDS011;60912;48.968;10.124;2024-01-30T03:49:02;13.60;;;7.53;;
71639;SDS011;60912;48.968;10.124;2024-01-30T03:51:28;14.17;;;7.37;;
71639;SDS011;60912;48.968;10.124;2024-01-30T03:53:53;14.43;;;7.30;;
71639;SDS011;60912;48.968;10.124;2024-01-30T03:56:18;14.07;;;7.93;;
71639;SDS011;60912;48.968;10.124;2024-01-30T03:58:44;13.93;;;7.90;;
71639;SDS011;60912;48.968;10.124;2024-01-30T04:01:13;14.77;;;8.03;;
71639;SDS011;60912;48.968;10.124;2024-01-30T04:03:39;13.05;;;7.25;;
71639;SDS011;60912;48.968;10.124;2024-01-30T04:06:05;15.77;;;8.00;;
71639;SDS011;60912;48.968;10.124;2024-01-30T04:08:30;15.53;;;7.53;;
71639;SDS011;60912;48.968;10.124;2024-01-30T04:10:55;15.63;;;7.93;;
71639;SDS011;60912;48.968;10.124;2024-01-30T04:13:21;14.07;;;8.00;;
71639;SDS011;60912;48.968;10.124;2024-01-30T04:15:46;14.50;;;7.70;;
71639;SDS011;60912;48.968;10.124;2024-01-30T04:18:11;13.63;;;7.80;;
71639;SDS011;60912;48.968;10.124;2024-01-30T04:20:37;13.73;;;8.03;;
71639;SDS011;60912;48.968;10.124;2024-01-30T04:23:02;14.10;;;7.80;;
71639;SDS011;60912;48.968;10.124;2024-01-30T04:25:27;14.67;;;7.33;;
71639;SDS011;60912;48.968;10.124;2024-01-30T04:27:53;13.03;;;8.00;;
71639;SDS011;60912;48.968;10.124;2024-01-30T04:30:18;12.83;;;7.60;;
71639;SDS011;60912;48.968;10.124;2024-01-30T04:32:44;14.47;;;7.50;;
71639;SDS011;60912;48.968;10.124;2024-01-30T04:35:09;13.37;;;7.33;;
71639;SDS011;60912;48.968;10.124;2024-01-30T04:37:34;11.77;;;7.10;;
71639;SDS011;60912;48.968;10.124;2024-01-30T04:40:00;12.30;;;7.23;;
71639;SDS011;60912;48.968;10.124;2024-01-30T04:42:25;15.47;;;8.10;;
71639;SDS011;60912;48.968;10.124;2024-01-30T04:44:50;13.23;;;7.97;;
71639;SDS011;60912;48.968;10.124;2024-01-30T04:47:16;13.40;;;7.30;;
71639;SDS011;60912;48.968;10.124;2024-01-30T04:49:41;11.77;;;7.70;;
71639;SDS011;60912;48.968;10.124;2024-01-30T04:52:07;13.23;;;7.60;;
71639;SDS011;60912;48.968;10.124;2024-01-30T04:54:33;15.52;;;8.23;;
71639;SDS011;60912;48.968;10.124;2024-01-30T04:57:02;16.07;;;8.00;;
71639;SDS011;60912;48.968;10.124;2024-01-30T04:59:27;15.27;;;8.00;;
71639;SDS011;60912;48.968;10.124;2024-01-30T05:01:53;12.40;;;7.93;;
71639;SDS011;60912;48.968;10.124;2024-01-30T05:04:18;14.98;;;8.55;;
71639;SDS011;60912;48.968;10.124;2024-01-30T05:06:46;15.77;;;7.90;;
71639;SDS011;60912;48.968;10.124;2024-01-30T05:09:12;14.65;;;8.15;;
71639;SDS011;60912;48.968;10.124;2024-01-30T05:11:40;17.87;;;8.13;;
71639;SDS011;60912;48.968;10.124;2024-01-30T05:14:06;13.70;;;8.15;;
71639;SDS011;60912;48.968;10.124;2024-01-30T05:16:33;16.52;;;8.10;;
71639;SDS011;60912;48.968;10.124;2024-01-30T05:18:59;20.17;;;8.53;;
71639;SDS011;60912;48.968;10.124;2024-01-30T05:21:24;13.27;;;7.93;;
71639;SDS011;60912;48.968;10.124;2024-01-30T05:23:50;21.83;;;8.40;;
71639;SDS011;60912;48.968;10.124;2024-01-30T05:26:15;14.97;;;8.10;;
71639;SDS011;60912;48.968;10.124;2024-01-30T05:28:40;17.60;;;8.63;;
71639;SDS011;60912;48.968;10.124;2024-01-30T05:31:06;13.77;;;7.90;;
71639;SDS011;60912;48.968;10.124;2024-01-30T05:33:31;14.50;;;8.63;;
71639;SDS011;60912;48.968;10.124;2024-01-30T05:35:57;15.55;;;8.93;;
71639;SDS011;60912;48.968;10.124;2024-01-30T05:38:22;16.60;;;8.73;;
71639;SDS011;60912;48.968;10.124;2024-01-30T05:40:48;14.97;;;9.33;;
71639;SDS011;60912;48.968;10.124;2024-01-30T05:43:13;16.87;;;8.73;;
71639;SDS011;60912;48.968;10.124;2024-01-30T05:45:39;16.30;;;9.57;;
71639;SDS011;60912;48.968;10.124;2024-01-30T05:48:04;18.27;;;9.63;;
71639;SDS011;60912;48.968;10.124;2024-01-30T05:50:30;17.40;;;9.97;;
71639;SDS011;60912;48.968;10.124;2024-01-30T05:52:55;18.93;;;9.20;;
71639;SDS011;60912;48.968;10.124;2024-01-30T05:55:20;19.10;;;9.50;;
71639;SDS011;60912;48.968;10.124;2024-01-30T05:57:46;19.93;;;10.10;;
71639;SDS011;60912;48.968;10.124;2024-01-30T06:00:11;18.50;;;9.93;;
71639;SDS011;60912;48.968;10.124;2024-01-30T06:02:37;17.70;;;9.32;;
71639;SDS011;60912;48.968;10.124;2024-01-30T06:05:03;21.33;;;9.97;;
71639;SDS011;60912;48.968;10.124;2024-01-30T06:07:28;20.33;;;10.23;;
71639;SDS011;60912;48.968;10.124;2024-01-30T06:09:54;18.13;;;9.73;;
71639;SDS011;60912;48.968;10.124;2024-01-30T06:12:19;21.13;;;10.50;;
71639;SDS011;60912;48.968;10.124;2024-01-30T06:14:44;18.17;;;9.87;;
71639;SDS011;60912;48.968;10.124;2024-01-30T06:17:10;23.60;;;10.57;;
71639;SDS011;60912;48.968;10.124;2024-01-30T06:19:36;19.67;;;10.25;;
71639;SDS011;60912;48.968;10.124;2024-01-30T06:22:05;18.58;;;10.23;;
71639;SDS011;60912;48.968;10.124;2024-01-30T06:24:31;19.10;;;11.13;;
71639;SDS011;60912;48.968;10.124;2024-01-30T06:26:56;21.53;;;11.87;;
71639;SDS011;60912;48.968;10.124;2024-01-30T06:29:22;21.55;;;11.32;;
71639;SDS011;60912;48.968;10.124;2024-01-30T06:31:49;22.43;;;11.37;;
71639;SDS011;60912;48.968;10.124;2024-01-30T06:34:15;18.23;;;11.07;;
71639;SDS011;60912;48.968;10.124;2024-01-30T06:36:40;24.17;;;11.23;;
71639;SDS011;60912;48.968;10.124;2024-01-30T06:39:05;24.80;;;11.80;;
71639;SDS011;60912;48.968;10.124;2024-01-30T06:41:32;22.15;;;12.00;;
71639;SDS011;60912;48.968;10.124;2024-01-30T06:43:57;23.33;;;12.77;;
71639;SDS011;60912;48.968;10.124;2024-01-30T06:46:23;17.77;;;10.50;;
71639;SDS011;60912;48.968;10.124;2024-01-30T06:48:51;21.23;;;10.73;;
71639;SDS011;60912;48.968;10.124;2024-01-30T06:51:17;18.50;;;10.10;;
71639;SDS011;60912;48.968;10.124;2024-01-30T06:53:42;19.03;;;10.80;;
71639;SDS011;60912;48.968;10.124;2024-01-30T06:56:07;18.63;;;10.23;;
71639;SDS011;60912;48.968;10.124;2024-01-30T06:58:33;17.73;;;9.60;;
71639;SDS011;60912;48.968;10.124;2024-01-30T07:00:58;18.13;;;9.40;;
71639;SDS011;60912;48.968;10.124;2024-01-30T07:03:23;17.40;;;10.33;;
71639;SDS011;60912;48.968;10.124;2024-01-30T07:05:49;20.33;;;11.00;;
71639;SDS011;60912;48.968;10.124;2024-01-30T07:08:18;19.70;;;10.43;;
71639;SDS011;60912;48.968;10.124;2024-01-30T07:10:43;17.23;;;10.73;;
71639;SDS011;60912;48.968;10.124;2024-01-30T07:13:10;18.07;;;10.43;;
71639;SDS011;60912;48.968;10.124;2024-01-30T07:15:36;16.85;;;10.05;;
71639;SDS011;60912;48.968;10.124;2024-01-30T07:18:02;18.73;;;10.15;;
71639;SDS011;60912;48.968;10.124;2024-01-30T07:20:27;21.17;;;10.73;;
71639;SDS011;60912;48.968;10.124;2024-01-30T07:22:55;14.98;;;9.57;;
71639;SDS011;60912;48.968;10.124;2024-01-30T07:25:21;14.73;;;8.90;;
71639;SDS011;60912;48.968;10.124;2024-01-30T07:27:46;14.10;;;8.10;;
71639;SDS011;60912;48.968;10.124;2024-01-30T07:30:12;17.77;;;8.77;;
71639;SDS011;60912;48.968;10.124;2024-01-30T07:32:37;14.75;;;8.57;;
71639;SDS011;60912;48.968;10.124;2024-01-30T07:35:03;16.13;;;9.03;;
71639;SDS011;60912;48.968;10.124;2024-01-30T07:37:31;14.57;;;9.13;;
71639;SDS011;60912;48.968;10.124;2024-01-30T07:39:57;17.15;;;9.70;;
71639;SDS011;60912;48.968;10.124;2024-01-30T07:42:23;20.43;;;10.33;;
71639;SDS011;60912;48.968;10.124;2024-01-30T07:44:48;17.43;;;10.57;;
71639;SDS011;60912;48.968;10.124;2024-01-30T07:47:13;18.77;;;10.83;;
71639;SDS011;60912;48.968;10.124;2024-01-30T07:49:39;18.83;;;11.07;;
71639;SDS011;60912;48.968;10.124;2024-01-30T07:52:05;20.20;;;11.07;;
71639;SDS011;60912;48.968;10.124;2024-01-30T07:54:33;16.50;;;10.10;;
71639;SDS011;60912;48.968;10.124;2024-01-30T07:56:59;17.13;;;9.85;;
71639;SDS011;60912;48.968;10.124;2024-01-30T07:59:25;19.23;;;10.88;;
71639;SDS011;60912;48.968;10.124;2024-01-30T08:01:51;20.57;;;10.90;;
71639;SDS011;60912;48.968;10.124;2024-01-30T08:04:17;26.90;;;11.50;;
71639;SDS011;60912;48.968;10.124;2024-01-30T08:06:42;20.88;;;10.80;;
71639;SDS011;60912;48.968;10.124;2024-01-30T08:09:08;17.63;;;10.13;;
71639;SDS011;60912;48.968;10.124;2024-01-30T08:11:33;19.50;;;10.47;;
71639;SDS011;60912;48.968;10.124;2024-01-30T08:13:59;20.50;;;11.60;;
71639;SDS011;60912;48.968;10.124;2024-01-30T08:16:24;18.90;;;10.53;;
71639;SDS011;60912;48.968;10.124;2024-01-30T08:18:50;17.70;;;11.07;;
71639;SDS011;60912;48.968;10.124;2024-01-30T08:21:15;18.67;;;10.57;;
71639;SDS011;60912;48.968;10.124;2024-01-30T08:23:40;20.90;;;11.37;;
71639;SDS011;60912;48.968;10.124;2024-01-30T08:26:07;20.08;;;10.63;;
71639;SDS011;60912;48.968;10.124;2024-01-30T08:28:33;18.38;;;10.45;;
71639;SDS011;60912;48.968;10.124;2024-01-30T08:30:58;20.10;;;11.30;;
71639;SDS011;60912;48.968;10.124;2024-01-30T08:33:24;16.57;;;10.80;;
71639;SDS011;60912;48.968;10.124;2024-01-30T08:35:49;17.90;;;11.23;;
71639;SDS011;60912;48.968;10.124;2024-01-30T08:38:14;17.20;;;10.80;;
71639;SDS011;60912;48.968;10.124;2024-01-30T08:40:40;17.47;;;10.83;;
71639;SDS011;60912;48.968;10.124;2024-01-30T08:43:05;21.27;;;12.38;;
71639;SDS011;60912;48.968;10.124;2024-01-30T08:45:30;19.90;;;11.43;;
71639;SDS011;60912;48.968;10.124;2024-01-30T08:47:56;22.33;;;11.20;;
71639;SDS011;60912;48.968;10.124;2024-01-30T08:50:21;18.00;;;10.60;;
71639;SDS011;60912;48.968;10.124;2024-01-30T08:52:47;19.58;;;11.45;;
71639;SDS011;60912;48.968;10.124;2024-01-30T08:55:12;18.80;;;11.27;;
71639;SDS011;60912;48.968;10.124;2024-01-30T08:57:38;18.50;;;10.77;;
71639;SDS011;60912;48.968;10.124;2024-01-30T09:00:03;18.83;;;11.13;;
71639;SDS011;60912;48.968;10.124;2024-01-30T09:02:31;17.90;;;11.10;;
71639;SDS011;60912;48.968;10.124;2024-01-30T09:04:57;17.65;;;11.18;;
71639;SDS011;60912;48.968;10.124;2024-01-30T09:07:23;17.98;;;11.00;;
71639;SDS011;60912;48.968;10.124;2024-01-30T09:09:49;18.97;;;11.17;;
71639;SDS011;60912;48.968;10.124;2024-01-30T09:12:14;17.60;;;10.53;;
71639;SDS011;60912;48.968;10.124;2024-01-30T09:14:40;17.23;;;10.88;;
71639;SDS011;60912;48.968;10.124;2024-01-30T09:17:06;19.67;;;10.50;;
71639;SDS011;60912;48.968;10.124;2024-01-30T09:19:31;17.83;;;10.20;;
71639;SDS011;60912;48.968;10.124;2024-01-30T09:21:57;14.87;;;9.90;;
71639;SDS011;60912;48.968;10.124;2024-01-30T09:24:22;17.30;;;10.50;;
71639;SDS011;60912;48.968;10.124;2024-01-30T09:26:48;16.40;;;10.43;;
71639;SDS011;60912;48.968;10.124;2024-01-30T09:29:13;18.90;;;10.43;;
71639;SDS011;60912;48.968;10.124;2024-01-30T09:31:39;18.83;;;10.50;;
71639;SDS011;60912;48.968;10.124;2024-01-30T09:34:04;16.00;;;10.20;;
71639;SDS011;60912;48.968;10.124;2024-01-30T09:36:31;15.52;;;10.07;;
71639;SDS011;60912;48.968;10.124;2024-01-30T09:38:57;17.13;;;9.47;;
71639;SDS011;60912;48.968;10.124;2024-01-30T09:41:23;16.83;;;9.57;;
71639;SDS011;60912;48.968;10.124;2024-01-30T09:43:50;16.77;;;9.53;;
71639;SDS011;60912;48.968;10.124;2024-01-30T09:46:16;16.90;;;10.30;;
71639;SDS011;60912;48.968;10.124;2024-01-30T09:48:43;17.60;;;9.95;;
71639;SDS011;60912;48.968;10.124;2024-01-30T09:51:11;20.55;;;10.65;;
71639;SDS011;60912;48.968;10.124;2024-01-30T09:53:39;17.77;;;10.37;;
71639;SDS011;60912;48.968;10.124;2024-01-30T09:56:05;14.93;;;9.48;;
71639;SDS011;60912;48.968;10.124;2024-01-30T09:58:31;17.03;;;10.37;;
71639;SDS011;60912;48.968;10.124;2024-01-30T10:00:56;17.42;;;9.63;;
71639;SDS011;60912;48.968;10.124;2024-01-30T10:03:21;17.77;;;10.03;;
71639;SDS011;60912;48.968;10.124;2024-01-30T10:05:53;16.53;;;9.50;;
71639;SDS011;60912;48.968;10.124;2024-01-30T10:08:21;18.25;;;9.43;;
71639;SDS011;60912;48.968;10.124;2024-01-30T10:10:46;19.37;;;9.37;;
71639;SDS011;60912;48.968;10.124;2024-01-30T10:13:12;15.68;;;9.60;;
71639;SDS011;60912;48.968;10.124;2024-01-30T10:15:37;22.27;;;10.87;;
71639;SDS011;60912;48.968;10.124;2024-01-30T10:18:04;17.55;;;10.32;;
71639;SDS011;60912;48.968;10.124;2024-01-30T10:20:31;18.53;;;11.40;;
71639;SDS011;60912;48.968;10.124;2024-01-30T10:22:57;19.17;;;10.52;;
71639;SDS011;60912;48.968;10.124;2024-01-30T10:25:23;20.50;;;9.73;;
71639;SDS011;60912;48.968;10.124;2024-01-30T10:27:52;21.60;;;11.30;;
71639;SDS011;60912;48.968;10.124;2024-01-30T10:30:21;23.02;;;9.13;;
71639;SDS011;60912;48.968;10.124;2024-01-30T10:32:47;21.83;;;9.80;;
71639;SDS011;60912;48.968;10.124;2024-01-30T10:35:13;20.55;;;10.02;;
71639;SDS011;60912;48.968;10.124;2024-01-30T10:37:38;16.47;;;9.50;;
71639;SDS011;60912;48.968;10.124;2024-01-30T10:40:04;20.40;;;9.40;;
71639;SDS011;60912;48.968;10.124;2024-01-30T10:42:32;21.93;;;9.47;;
71639;SDS011;60912;48.968;10.124;2024-01-30T10:45:08;27.17;;;9.48;;
71639;SDS011;60912;48.968;10.124;2024-01-30T10:47:37;19.35;;;9.30;;
71639;SDS011;60912;48.968;10.124;2024-01-30T10:50:05;20.85;;;9.43;;
71639;SDS011;60912;48.968;10.124;2024-01-30T10:52:32;16.30;;;8.48;;
71639;SDS011;60912;48.968;10.124;2024-01-30T10:54:58;17.50;;;8.77;;
71639;SDS011;60912;48.968;10.124;2024-01-30T10:57:24;15.77;;;8.35;;
71639;SDS011;60912;48.968;10.124;2024-01-30T10:59:57;17.02;;;8.70;;
71639;SDS011;60912;48.968;10.124;2024-01-30T11:02:24;18.67;;;9.30;;
71639;SDS011;60912;48.968;10.124;2024-01-30T11:04:54;18.30;;;9.32;;
71639;SDS011;60912;48.968;10.124;2024-01-30T11:07:26;19.50;;;9.20;;
71639;SDS011;60912;48.968;10.124;2024-01-30T11:12:24;20.27;;;8.70;;
71639;SDS011;60912;48.968;10.124;2024-01-30T11:15:12;21.50;;;8.13;;
71639;SDS011;60912;48.968;10.124;2024-01-30T11:18:01;21.70;;;7.88;;
71639;SDS011;60912;48.968;10.124;2024-01-30T11:20:27;18.42;;;5.80;;
71639;SDS011;60912;48.968;10.124;2024-01-30T11:22:58;14.90;;;5.20;;
71639;SDS011;60912;48.968;10.124;2024-01-30T11:25:24;9.55;;;4.20;;
71639;SDS011;60912;48.968;10.124;2024-01-30T11:27:54;10.03;;;4.60;;
71639;SDS011;60912;48.968;10.124;2024-01-30T11:30:30;15.38;;;5.13;;
71639;SDS011;60912;48.968;10.124;2024-01-30T11:33:06;8.90;;;3.80;;
71639;SDS011;60912;48.968;10.124;2024-01-30T11:35:36;8.45;;;3.88;;
71639;SDS011;60912;48.968;10.124;2024-01-30T11:38:05;5.70;;;2.97;;
71639;SDS011;60912;48.968;10.124;2024-01-30T11:40:32;9.03;;;3.20;;
71639;SDS011;60912;48.968;10.124;2024-01-30T11:42:58;9.05;;;4.05;;
71639;SDS011;60912;48.968;10.124;2024-01-30T11:45:25;7.85;;;2.97;;
71639;SDS011;60912;48.968;10.124;2024-01-30T11:47:52;6.25;;;3.28;;
71639;SDS011;60912;48.968;10.124;2024-01-30T11:50:18;6.10;;;3.10;;
71639;SDS011;60912;48.968;10.124;2024-01-30T11:52:44;6.03;;;3.10;;
71639;SDS011;60912;48.968;10.124;2024-01-30T11:55:09;6.83;;;3.30;;
71639;SDS011;60912;48.968;10.124;2024-01-30T11:57:35;6.43;;;3.22;;
71639;SDS011;60912;48.968;10.124;2024-01-30T12:00:02;8.10;;;3.00;;
71639;SDS011;60912;48.968;10.124;2024-01-30T12:02:37;5.37;;;2.77;;
71639;SDS011;60912;48.968;10.124;2024-01-30T12:05:04;4.55;;;2.33;;
71639;SDS011;60912;48.968;10.124;2024-01-30T12:07:30;5.67;;;2.33;;
71639;SDS011;60912;48.968;10.124;2024-01-30T12:09:55;5.20;;;2.00;;
71639;SDS011;60912;48.968;10.124;2024-01-30T12:12:24;5.23;;;2.20;;
71639;SDS011;60912;48.968;10.124;2024-01-30T12:14:51;10.40;;;2.45;;
71639;SDS011;60912;48.968;10.124;2024-01-30T12:17:32;6.03;;;2.13;;
71639;SDS011;60912;48.968;10.124;2024-01-30T12:20:11;4.65;;;1.80;;
71639;SDS011;60912;48.968;10.124;2024-01-30T12:25:10;4.05;;;2.15;;
71639;SDS011;60912;48.968;10.124;2024-01-30T12:27:36;4.25;;;2.20;;
71639;SDS011;60912;48.968;10.124;2024-01-30T12:30:05;3.70;;;1.80;;
71639;SDS011;60912;48.968;10.124;2024-01-30T12:32:33;4.35;;;2.03;;
71639;SDS011;60912;48.968;10.124;2024-01-30T12:35:04;5.57;;;2.00;;
71639;SDS011;60912;48.968;10.124;2024-01-30T12:37:32;5.82;;;2.13;;
71639;SDS011;60912;48.968;10.124;2024-01-30T12:39:58;4.37;;;1.87;;
71639;SDS011;60912;48.968;10.124;2024-01-30T12:42:23;4.77;;;2.07;;
71639;SDS011;60912;48.968;10.124;2024-01-30T12:44:52;5.73;;;2.00;;
71639;SDS011;60912;48.968;10.124;2024-01-30T12:47:17;4.13;;;2.03;;
71639;SDS011;60912;48.968;10.124;2024-01-30T12:49:43;4.78;;;1.60;;
71639;SDS011;60912;48.968;10.124;2024-01-30T12:52:09;4.13;;;1.87;;
71639;SDS011;60912;48.968;10.124;2024-01-30T12:54:36;4.28;;;1.73;;
71639;SDS011;60912;48.968;10.124;2024-01-30T12:57:02;3.40;;;1.60;;
71639;SDS011;60912;48.968;10.124;2024-01-30T12:59:28;6.20;;;2.00;;
71639;SDS011;60912;48.968;10.124;2024-01-30T13:01:53;5.33;;;2.00;;
71639;SDS011;60912;48.968;10.124;2024-01-30T13:04:22;3.40;;;1.90;;
71639;SDS011;60912;48.968;10.124;2024-01-30T13:06:51;4.30;;;1.75;;
71639;SDS011;60912;48.968;10.124;2024-01-30T13:15:03;4.35;;;1.60;;
71639;SDS011;60912;48.968;10.124;2024-01-30T13:17:34;3.40;;;1.80;;
71639;SDS011;60912;48.968;10.124;2024-01-30T13:20:01;4.57;;;2.10;;
71639;SDS011;60912;48.968;10.124;2024-01-30T13:22:29;3.90;;;1.88;;
71639;SDS011;60912;48.968;10.124;2024-01-30T13:24:54;4.32;;;1.90;;
71639;SDS011;60912;48.968;10.124;2024-01-30T13:27:23;3.92;;;1.88;;
71639;SDS011;60912;48.968;10.124;2024-01-30T13:29:49;3.60;;;1.60;;
71639;SDS011;60912;48.968;10.124;2024-01-30T13:32:14;4.23;;;1.93;;
71639;SDS011;60912;48.968;10.124;2024-01-30T13:35:16;3.55;;;1.70;;
71639;SDS011;60912;48.968;10.124;2024-01-30T13:37:42;3.63;;;1.63;;
71639;SDS011;60912;48.968;10.124;2024-01-30T13:40:07;4.10;;;1.80;;
71639;SDS011;60912;48.968;10.124;2024-01-30T13:42:34;4.97;;;1.80;;
71639;SDS011;60912;48.968;10.124;2024-01-30T13:45:02;3.13;;;1.80;;
71639;SDS011;60912;48.968;10.124;2024-01-30T13:47:28;3.80;;;1.70;;
71639;SDS011;60912;48.968;10.124;2024-01-30T13:49:54;4.43;;;2.07;;
71639;SDS011;60912;48.968;10.124;2024-01-30T13:52:19;4.00;;;1.80;;
71639;SDS011;60912;48.968;10.124;2024-01-30T13:54:45;4.13;;;2.00;;
71639;SDS011;60912;48.968;10.124;2024-01-30T13:57:10;3.17;;;1.50;;
71639;SDS011;60912;48.968;10.124;2024-01-30T13:59:39;4.38;;;2.05;;
71639;SDS011;60912;48.968;10.124;2024-01-30T14:02:05;4.25;;;2.00;;
71639;SDS011;60912;48.968;10.124;2024-01-30T14:04:31;3.42;;;1.90;;
71639;SDS011;60912;48.968;10.124;2024-01-30T14:06:57;4.93;;;1.77;;
71639;SDS011;60912;48.968;10.124;2024-01-30T14:09:22;4.27;;;1.90;;
71639;SDS011;60912;48.968;10.124;2024-01-30T14:11:48;3.97;;;1.80;;
71639;SDS011;60912;48.968;10.124;2024-01-30T14:14:13;4.27;;;1.63;;
71639;SDS011;60912;48.968;10.124;2024-01-30T14:16:42;3.88;;;1.67;;
71639;SDS011;60912;48.968;10.124;2024-01-30T14:19:07;6.15;;;1.60;;
71639;SDS011;60912;48.968;10.124;2024-01-30T14:21:32;3.20;;;1.70;;
71639;SDS011;60912;48.968;10.124;2024-01-30T14:23:58;3.67;;;1.80;;
71639;SDS011;60912;48.968;10.124;2024-01-30T14:26:23;3.50;;;1.77;;